createdAt,value
2022-09-22T00:04:58.512Z,25.569
2022-09-22T00:20:00.357Z,25.479
2022-09-22T00:35:02.193Z,24.893
2022-09-22T00:50:04.037Z,25.207
2022-09-22T01:05:06.074Z,26.427
2022-09-22T01:20:08.240Z,26.455
2022-09-22T01:35:10.425Z,26.998
2022-09-22T01:50:12.494Z,26.987
2022-09-22T02:05:14.605Z,27.356
2022-09-22T02:20:16.799Z,27.437
2022-09-22T02:35:18.727Z,27.6
2022-09-22T02:50:20.747Z,28.099
2022-09-22T03:05:22.633Z,28.32
2022-09-22T03:20:24.497Z,27.041
2022-09-22T03:35:26.349Z,27.606
2022-09-22T03:50:28.183Z,27.714
2022-09-22T04:05:30.025Z,27.105
2022-09-22T04:20:31.857Z,27.874
2022-09-22T04:35:33.679Z,27.449
2022-09-22T04:50:35.541Z,27.588
2022-09-22T05:05:37.415Z,28.127
2022-09-22T05:20:39.254Z,28.107
2022-09-22T05:35:41.088Z,27.892
2022-09-22T05:50:42.905Z,28.149
2022-09-22T06:05:44.698Z,28.509
2022-09-22T06:20:46.549Z,28.712
2022-09-22T06:35:48.411Z,28.157
2022-09-22T06:50:50.232Z,29.192
2022-09-22T07:05:52.081Z,28.023
2022-09-22T07:20:53.929Z,27.726
2022-09-22T07:35:55.778Z,28.141
2022-09-22T07:50:57.605Z,27.921
2022-09-22T08:06:03.862Z,27.897
2022-09-22T08:21:07.757Z,27.712
2022-09-22T08:36:09.583Z,29.158
2022-09-22T08:51:11.440Z,29.105
2022-09-22T09:06:13.294Z,28.943
2022-09-22T09:21:15.133Z,28.198
2022-09-22T09:51:18.762Z,28.064
2022-09-22T10:06:20.615Z,27.656
2022-09-22T10:21:22.520Z,27.881
2022-09-22T10:36:24.368Z,28.23
2022-09-22T10:51:26.195Z,28.291
2022-09-22T11:06:28.010Z,28.159
2022-09-22T11:21:29.876Z,26.483
2022-09-22T11:36:31.707Z,26.732
2022-09-22T11:51:33.563Z,26.557
2022-09-22T12:06:35.389Z,27
2022-09-22T12:21:37.268Z,27.437
2022-09-22T12:36:39.090Z,27.647
2022-09-22T12:51:40.946Z,28.135
2022-09-22T13:06:42.811Z,28.918
2022-09-22T13:21:44.655Z,29.862
2022-09-22T13:36:46.507Z,29.924
2022-09-22T13:51:48.342Z,29.155
2022-09-22T14:06:50.163Z,29.575
2022-09-22T14:21:52.017Z,29.452
2022-09-22T14:36:53.887Z,29.403
2022-09-22T14:51:55.732Z,29.624
2022-09-22T15:06:57.361Z,29.546
2022-09-22T15:21:59.184Z,29.45
2022-09-22T15:37:01.070Z,29.603
2022-09-22T15:52:03.132Z,29.742
2022-09-22T16:07:04.977Z,29.585
2022-09-22T16:22:06.797Z,29.571
2022-09-22T16:37:08.616Z,29.364
2022-09-22T16:52:10.444Z,29.374
2022-09-22T17:07:12.254Z,29.245
2022-09-22T17:22:14.076Z,29.187
2022-09-22T17:37:15.901Z,29.334
2022-09-22T17:52:17.745Z,28.803
2022-09-22T18:07:19.552Z,27.705
2022-09-22T18:22:21.391Z,27.123
2022-09-22T18:37:23.219Z,27.169
2022-09-22T18:52:25.046Z,27.233
2022-09-22T19:07:26.897Z,27.269
2022-09-22T19:22:28.729Z,27.064
2022-09-22T19:37:30.541Z,26.616
2022-09-22T19:52:32.887Z,26.068
2022-09-22T20:07:34.739Z,25.791
2022-09-22T20:22:36.572Z,25.406
2022-09-22T20:37:38.420Z,25.369
2022-09-22T20:52:40.259Z,25.955
2022-09-22T21:07:42.083Z,25.535
2022-09-22T21:22:43.927Z,25.672
2022-09-22T21:37:45.782Z,24.933
2022-09-22T21:52:47.609Z,25.045
2022-09-22T22:07:49.431Z,24.328
2022-09-22T22:22:51.283Z,24.719
2022-09-22T22:37:53.115Z,26.179
2022-09-22T22:52:54.969Z,25.503
2022-09-22T23:07:56.822Z,25.373
2022-09-22T23:22:58.645Z,24.512
2022-09-22T23:38:00.515Z,24.985
2022-09-22T23:53:02.375Z,25.154
